sensor_id;sensor_type;location;lat;lon;timestamp;temperature;humidity
18930;DHT22;43305;52.186;5.598;2022-12-19T00:02:24;1.00;99.90
18930;DHT22;43305;52.186;5.598;2022-12-19T00:04:51;1.10;99.90
18930;DHT22;43305;52.186;5.598;2022-12-19T00:07:18;1.10;99.90
18930;DHT22;43305;52.186;5.598;2022-12-19T00:09:58;1.10;99.90
18930;DHT22;43305;52.186;5.598;2022-12-19T00:12:28;1.10;99.90
18930;DHT22;43305;52.186;5.598;2022-12-19T00:14:57;1.10;99.90
18930;DHT22;43305;52.186;5.598;2022-12-19T00:17:23;1.10;99.90
18930;DHT22;43305;52.186;5.598;2022-12-19T00:20:08;1.10;99.90
18930;DHT22;43305;52.186;5.598;2022-12-19T00:22:37;1.10;99.90
18930;DHT22;43305;52.186;5.598;2022-12-19T00:25:13;1.10;99.90
18930;DHT22;43305;52.186;5.598;2022-12-19T00:27:44;1.20;99.90
18930;DHT22;43305;52.186;5.598;2022-12-19T00:30:15;1.20;99.90
18930;DHT22;43305;52.186;5.598;2022-12-19T00:32:44;1.20;99.90
18930;DHT22;43305;52.186;5.598;2022-12-19T00:35:14;1.20;99.90
18930;DHT22;43305;52.186;5.598;2022-12-19T00:37:54;1.20;99.90
18930;DHT22;43305;52.186;5.598;2022-12-19T00:40:21;1.20;99.90
18930;DHT22;43305;52.186;5.598;2022-12-19T00:42:49;1.20;99.90
18930;DHT22;43305;52.186;5.598;2022-12-19T00:45:29;1.10;99.90
18930;DHT22;43305;52.186;5.598;2022-12-19T00:47:56;1.20;99.90
18930;DHT22;43305;52.186;5.598;2022-12-19T00:50:30;1.20;99.90
18930;DHT22;43305;52.186;5.598;2022-12-19T00:52:58;1.30;99.90
18930;DHT22;43305;52.186;5.598;2022-12-19T00:55:29;1.30;99.90
18930;DHT22;43305;52.186;5.598;2022-12-19T00:57:57;1.40;99.90
18930;DHT22;43305;52.186;5.598;2022-12-19T01:00:29;1.40;99.90
18930;DHT22;43305;52.186;5.598;2022-12-19T01:03:01;1.50;99.90
18930;DHT22;43305;52.186;5.598;2022-12-19T01:05:27;1.50;99.90
18930;DHT22;43305;52.186;5.598;2022-12-19T01:07:57;1.60;99.90
18930;DHT22;43305;52.186;5.598;2022-12-19T01:10:26;1.60;99.90
18930;DHT22;43305;52.186;5.598;2022-12-19T01:12:52;1.70;99.90
18930;DHT22;43305;52.186;5.598;2022-12-19T01:15:25;1.70;99.90
18930;DHT22;43305;52.186;5.598;2022-12-19T01:17:57;1.70;99.90
18930;DHT22;43305;52.186;5.598;2022-12-19T01:20:24;1.70;99.90
18930;DHT22;43305;52.186;5.598;2022-12-19T01:22:53;1.80;99.90
18930;DHT22;43305;52.186;5.598;2022-12-19T01:25:23;1.80;99.90
18930;DHT22;43305;52.186;5.598;2022-12-19T01:27:55;1.70;99.90
18930;DHT22;43305;52.186;5.598;2022-12-19T01:30:25;1.80;99.90
18930;DHT22;43305;52.186;5.598;2022-12-19T01:32:53;1.80;99.90
18930;DHT22;43305;52.186;5.598;2022-12-19T01:35:22;1.80;99.90
18930;DHT22;43305;52.186;5.598;2022-12-19T01:37:54;1.80;99.90
18930;DHT22;43305;52.186;5.598;2022-12-19T01:40:22;1.80;99.90
18930;DHT22;43305;52.186;5.598;2022-12-19T01:42:54;1.90;99.90
18930;DHT22;43305;52.186;5.598;2022-12-19T01:45:31;1.90;99.90
18930;DHT22;43305;52.186;5.598;2022-12-19T01:48:03;1.90;99.90
18930;DHT22;43305;52.186;5.598;2022-12-19T01:50:36;2.00;99.90
18930;DHT22;43305;52.186;5.598;2022-12-19T01:53:09;2.00;99.90
18930;DHT22;43305;52.186;5.598;2022-12-19T01:55:42;2.10;99.90
18930;DHT22;43305;52.186;5.598;2022-12-19T01:58:09;2.00;99.90
18930;DHT22;43305;52.186;5.598;2022-12-19T02:00:46;2.10;99.90
18930;DHT22;43305;52.186;5.598;2022-12-19T02:03:15;2.10;99.90
18930;DHT22;43305;52.186;5.598;2022-12-19T02:05:51;2.10;99.90
18930;DHT22;43305;52.186;5.598;2022-12-19T02:08:19;2.00;99.90
18930;DHT22;43305;52.186;5.598;2022-12-19T02:10:58;2.00;99.90
18930;DHT22;43305;52.186;5.598;2022-12-19T02:13:28;2.10;99.90
18930;DHT22;43305;52.186;5.598;2022-12-19T02:16:19;2.00;99.90
18930;DHT22;43305;52.186;5.598;2022-12-19T02:18:56;2.10;99.90
18930;DHT22;43305;52.186;5.598;2022-12-19T02:21:38;2.10;99.90
18930;DHT22;43305;52.186;5.598;2022-12-19T02:24:38;2.10;99.90
18930;DHT22;43305;52.186;5.598;2022-12-19T02:32:59;2.20;99.90
18930;DHT22;43305;52.186;5.598;2022-12-19T02:35:32;2.20;99.90
18930;DHT22;43305;52.186;5.598;2022-12-19T02:38:10;2.20;99.90
18930;DHT22;43305;52.186;5.598;2022-12-19T02:40:49;2.20;99.90
18930;DHT22;43305;52.186;5.598;2022-12-19T02:43:21;2.30;99.90
18930;DHT22;43305;52.186;5.598;2022-12-19T02:45:52;2.30;99.90
18930;DHT22;43305;52.186;5.598;2022-12-19T02:48:24;2.30;99.90
18930;DHT22;43305;52.186;5.598;2022-12-19T02:50:52;2.40;99.90
18930;DHT22;43305;52.186;5.598;2022-12-19T02:53:22;2.40;99.90
18930;DHT22;43305;52.186;5.598;2022-12-19T02:56:03;2.40;99.90
18930;DHT22;43305;52.186;5.598;2022-12-19T02:58:48;2.40;99.90
18930;DHT22;43305;52.186;5.598;2022-12-19T03:01:23;2.30;99.90
18930;DHT22;43305;52.186;5.598;2022-12-19T03:04:03;2.40;99.90
18930;DHT22;43305;52.186;5.598;2022-12-19T03:06:38;2.40;99.90
18930;DHT22;43305;52.186;5.598;2022-12-19T03:09:14;2.40;99.90
18930;DHT22;43305;52.186;5.598;2022-12-19T03:11:48;2.40;99.90
18930;DHT22;43305;52.186;5.598;2022-12-19T03:14:30;2.50;99.90
18930;DHT22;43305;52.186;5.598;2022-12-19T03:17:05;2.50;99.90
18930;DHT22;43305;52.186;5.598;2022-12-19T03:19:37;2.50;99.90
18930;DHT22;43305;52.186;5.598;2022-12-19T03:22:10;2.50;99.90
18930;DHT22;43305;52.186;5.598;2022-12-19T03:24:41;2.50;99.90
18930;DHT22;43305;52.186;5.598;2022-12-19T03:27:15;2.60;99.90
18930;DHT22;43305;52.186;5.598;2022-12-19T03:29:46;2.60;99.90
18930;DHT22;43305;52.186;5.598;2022-12-19T03:32:20;2.60;99.90
18930;DHT22;43305;52.186;5.598;2022-12-19T03:34:51;2.60;99.90
18930;DHT22;43305;52.186;5.598;2022-12-19T03:37:22;2.70;99.90
18930;DHT22;43305;52.186;5.598;2022-12-19T03:39:56;2.70;99.90
18930;DHT22;43305;52.186;5.598;2022-12-19T03:42:27;2.70;99.90
18930;DHT22;43305;52.186;5.598;2022-12-19T03:45:19;2.70;99.90
18930;DHT22;43305;52.186;5.598;2022-12-19T03:47:54;2.80;99.90
18930;DHT22;43305;52.186;5.598;2022-12-19T03:50:31;2.80;99.90
18930;DHT22;43305;52.186;5.598;2022-12-19T03:53:12;2.80;99.90
18930;DHT22;43305;52.186;5.598;2022-12-19T03:55:47;2.90;99.90
18930;DHT22;43305;52.186;5.598;2022-12-19T03:58:21;3.00;99.90
18930;DHT22;43305;52.186;5.598;2022-12-19T04:00:54;3.10;99.90
18930;DHT22;43305;52.186;5.598;2022-12-19T04:03:31;3.10;99.90
18930;DHT22;43305;52.186;5.598;2022-12-19T04:06:03;3.10;99.90
18930;DHT22;43305;52.186;5.598;2022-12-19T04:08:31;3.20;99.90
18930;DHT22;43305;52.186;5.598;2022-12-19T04:11:04;3.20;99.90
18930;DHT22;43305;52.186;5.598;2022-12-19T04:13:34;3.30;99.90
18930;DHT22;43305;52.186;5.598;2022-12-19T04:16:14;3.30;99.90
18930;DHT22;43305;52.186;5.598;2022-12-19T04:18:45;3.40;99.90
18930;DHT22;43305;52.186;5.598;2022-12-19T04:21:21;3.50;99.90
18930;DHT22;43305;52.186;5.598;2022-12-19T04:23:54;3.50;99.90
18930;DHT22;43305;52.186;5.598;2022-12-19T04:26:23;3.60;99.90
18930;DHT22;43305;52.186;5.598;2022-12-19T04:28:55;3.60;99.90
18930;DHT22;43305;52.186;5.598;2022-12-19T04:31:24;3.70;99.90
18930;DHT22;43305;52.186;5.598;2022-12-19T04:33:50;3.80;99.90
18930;DHT22;43305;52.186;5.598;2022-12-19T04:36:22;3.80;99.90
18930;DHT22;43305;52.186;5.598;2022-12-19T04:38:51;3.90;99.90
18930;DHT22;43305;52.186;5.598;2022-12-19T04:41:20;3.90;99.90
18930;DHT22;43305;52.186;5.598;2022-12-19T04:43:47;3.90;99.90
18930;DHT22;43305;52.186;5.598;2022-12-19T04:46:14;4.00;99.90
18930;DHT22;43305;52.186;5.598;2022-12-19T04:48:51;4.00;99.90
18930;DHT22;43305;52.186;5.598;2022-12-19T04:51:19;4.10;99.90
18930;DHT22;43305;52.186;5.598;2022-12-19T04:53:52;4.10;99.90
18930;DHT22;43305;52.186;5.598;2022-12-19T04:56:19;4.20;99.90
18930;DHT22;43305;52.186;5.598;2022-12-19T04:58:45;4.20;99.90
18930;DHT22;43305;52.186;5.598;2022-12-19T05:01:14;4.20;99.90
18930;DHT22;43305;52.186;5.598;2022-12-19T05:03:49;4.20;99.90
18930;DHT22;43305;52.186;5.598;2022-12-19T05:06:17;4.20;99.90
18930;DHT22;43305;52.186;5.598;2022-12-19T05:08:46;4.20;99.90
18930;DHT22;43305;52.186;5.598;2022-12-19T05:11:17;4.10;99.90
18930;DHT22;43305;52.186;5.598;2022-12-19T05:13:45;4.20;99.90
18930;DHT22;43305;52.186;5.598;2022-12-19T05:16:21;4.20;99.90
18930;DHT22;43305;52.186;5.598;2022-12-19T05:18:50;4.20;99.90
18930;DHT22;43305;52.186;5.598;2022-12-19T05:21:20;4.20;99.90
18930;DHT22;43305;52.186;5.598;2022-12-19T05:23:52;4.20;99.90
18930;DHT22;43305;52.186;5.598;2022-12-19T05:26:23;4.30;99.90
18930;DHT22;43305;52.186;5.598;2022-12-19T05:28:50;4.40;99.90
18930;DHT22;43305;52.186;5.598;2022-12-19T05:31:18;4.30;99.90
18930;DHT22;43305;52.186;5.598;2022-12-19T05:33:48;4.30;99.90
18930;DHT22;43305;52.186;5.598;2022-12-19T05:36:19;4.30;99.90
18930;DHT22;43305;52.186;5.598;2022-12-19T05:38:47;4.40;99.90
18930;DHT22;43305;52.186;5.598;2022-12-19T05:41:16;4.40;99.90
18930;DHT22;43305;52.186;5.598;2022-12-19T05:43:48;4.40;99.90
18930;DHT22;43305;52.186;5.598;2022-12-19T05:46:18;4.50;99.90
18930;DHT22;43305;52.186;5.598;2022-12-19T05:48:45;4.60;99.90
18930;DHT22;43305;52.186;5.598;2022-12-19T05:51:12;4.60;99.90
18930;DHT22;43305;52.186;5.598;2022-12-19T05:53:39;4.60;99.90
18930;DHT22;43305;52.186;5.598;2022-12-19T05:56:08;4.60;99.90
18930;DHT22;43305;52.186;5.598;2022-12-19T05:58:38;4.70;99.90
18930;DHT22;43305;52.186;5.598;2022-12-19T06:01:10;4.70;99.90
18930;DHT22;43305;52.186;5.598;2022-12-19T06:03:37;4.80;99.90
18930;DHT22;43305;52.186;5.598;2022-12-19T06:06:08;4.80;99.90
18930;DHT22;43305;52.186;5.598;2022-12-19T06:08:41;4.80;99.90
18930;DHT22;43305;52.186;5.598;2022-12-19T06:11:13;4.80;99.90
18930;DHT22;43305;52.186;5.598;2022-12-19T06:13:40;4.90;99.90
18930;DHT22;43305;52.186;5.598;2022-12-19T06:16:13;4.90;99.90
18930;DHT22;43305;52.186;5.598;2022-12-19T06:18:41;5.00;99.90
18930;DHT22;43305;52.186;5.598;2022-12-19T06:21:13;5.00;99.90
18930;DHT22;43305;52.186;5.598;2022-12-19T06:23:40;5.00;99.90
18930;DHT22;43305;52.186;5.598;2022-12-19T06:26:08;5.00;99.90
18930;DHT22;43305;52.186;5.598;2022-12-19T06:28:37;5.10;99.90
18930;DHT22;43305;52.186;5.598;2022-12-19T06:31:06;5.10;99.90
18930;DHT22;43305;52.186;5.598;2022-12-19T06:33:35;5.10;99.90
18930;DHT22;43305;52.186;5.598;2022-12-19T06:36:04;5.10;99.90
18930;DHT22;43305;52.186;5.598;2022-12-19T06:38:35;5.20;99.90
18930;DHT22;43305;52.186;5.598;2022-12-19T06:41:05;5.20;99.90
18930;DHT22;43305;52.186;5.598;2022-12-19T06:43:47;5.30;99.90
18930;DHT22;43305;52.186;5.598;2022-12-19T06:46:14;5.30;99.90
18930;DHT22;43305;52.186;5.598;2022-12-19T06:48:50;5.40;99.90
18930;DHT22;43305;52.186;5.598;2022-12-19T06:51:25;5.40;99.90
18930;DHT22;43305;52.186;5.598;2022-12-19T06:53:57;5.50;99.90
18930;DHT22;43305;52.186;5.598;2022-12-19T06:56:27;5.70;99.90
18930;DHT22;43305;52.186;5.598;2022-12-19T06:59:06;5.70;99.90
18930;DHT22;43305;52.186;5.598;2022-12-19T07:01:46;5.70;99.90
18930;DHT22;43305;52.186;5.598;2022-12-19T07:04:24;5.80;99.90
18930;DHT22;43305;52.186;5.598;2022-12-19T07:07:02;5.90;99.90
18930;DHT22;43305;52.186;5.598;2022-12-19T07:09:29;6.00;99.90
18930;DHT22;43305;52.186;5.598;2022-12-19T07:12:00;6.00;99.90
18930;DHT22;43305;52.186;5.598;2022-12-19T07:14:32;6.00;99.90
18930;DHT22;43305;52.186;5.598;2022-12-19T07:17:06;6.00;99.90
18930;DHT22;43305;52.186;5.598;2022-12-19T07:19:36;6.00;99.90
18930;DHT22;43305;52.186;5.598;2022-12-19T07:22:08;6.10;99.90
18930;DHT22;43305;52.186;5.598;2022-12-19T07:24:40;6.20;99.90
18930;DHT22;43305;52.186;5.598;2022-12-19T07:27:10;6.30;99.90
18930;DHT22;43305;52.186;5.598;2022-12-19T07:29:40;6.30;99.90
18930;DHT22;43305;52.186;5.598;2022-12-19T07:32:07;6.30;99.90
18930;DHT22;43305;52.186;5.598;2022-12-19T07:34:49;6.40;99.90
18930;DHT22;43305;52.186;5.598;2022-12-19T07:37:16;6.40;99.90
18930;DHT22;43305;52.186;5.598;2022-12-19T07:39:50;6.50;99.90
18930;DHT22;43305;52.186;5.598;2022-12-19T07:42:26;6.60;99.90
18930;DHT22;43305;52.186;5.598;2022-12-19T07:44:56;6.60;99.90
18930;DHT22;43305;52.186;5.598;2022-12-19T07:47:27;6.50;99.90
18930;DHT22;43305;52.186;5.598;2022-12-19T07:49:57;6.60;99.90
18930;DHT22;43305;52.186;5.598;2022-12-19T07:52:25;6.70;99.90
18930;DHT22;43305;52.186;5.598;2022-12-19T07:54:56;6.70;99.90
18930;DHT22;43305;52.186;5.598;2022-12-19T07:57:23;6.70;99.90
18930;DHT22;43305;52.186;5.598;2022-12-19T07:59:53;6.80;99.90
18930;DHT22;43305;52.186;5.598;2022-12-19T08:02:24;6.80;99.90
18930;DHT22;43305;52.186;5.598;2022-12-19T08:04:54;6.80;99.90
18930;DHT22;43305;52.186;5.598;2022-12-19T08:07:23;6.70;99.90
18930;DHT22;43305;52.186;5.598;2022-12-19T08:09:54;6.80;99.90
18930;DHT22;43305;52.186;5.598;2022-12-19T08:12:24;6.80;99.90
18930;DHT22;43305;52.186;5.598;2022-12-19T08:14:51;6.80;99.90
18930;DHT22;43305;52.186;5.598;2022-12-19T08:17:18;6.80;99.90
18930;DHT22;43305;52.186;5.598;2022-12-19T08:19:45;6.80;99.90
18930;DHT22;43305;52.186;5.598;2022-12-19T08:22:22;6.90;99.90
18930;DHT22;43305;52.186;5.598;2022-12-19T08:24:54;6.80;99.90
18930;DHT22;43305;52.186;5.598;2022-12-19T08:27:28;6.90;99.90
18930;DHT22;43305;52.186;5.598;2022-12-19T08:30:02;6.90;99.90
18930;DHT22;43305;52.186;5.598;2022-12-19T08:32:33;6.90;99.90
18930;DHT22;43305;52.186;5.598;2022-12-19T08:35:05;7.00;99.90
18930;DHT22;43305;52.186;5.598;2022-12-19T08:37:37;7.00;99.90
18930;DHT22;43305;52.186;5.598;2022-12-19T08:40:14;7.10;99.90
18930;DHT22;43305;52.186;5.598;2022-12-19T08:42:53;7.10;99.90
18930;DHT22;43305;52.186;5.598;2022-12-19T08:45:23;7.10;99.90
18930;DHT22;43305;52.186;5.598;2022-12-19T08:47:54;7.20;99.90
18930;DHT22;43305;52.186;5.598;2022-12-19T08:50:21;7.20;99.90
18930;DHT22;43305;52.186;5.598;2022-12-19T08:52:56;7.20;99.90
18930;DHT22;43305;52.186;5.598;2022-12-19T08:55:28;7.20;99.90
18930;DHT22;43305;52.186;5.598;2022-12-19T08:58:00;7.30;99.90
18930;DHT22;43305;52.186;5.598;2022-12-19T09:00:33;7.30;99.90
18930;DHT22;43305;52.186;5.598;2022-12-19T09:03:05;7.20;99.90
18930;DHT22;43305;52.186;5.598;2022-12-19T09:05:33;7.30;99.90
18930;DHT22;43305;52.186;5.598;2022-12-19T09:08:05;7.30;99.90
18930;DHT22;43305;52.186;5.598;2022-12-19T09:10:34;7.30;99.90
18930;DHT22;43305;52.186;5.598;2022-12-19T09:13:07;7.30;99.90
18930;DHT22;43305;52.186;5.598;2022-12-19T09:15:40;7.40;99.90
18930;DHT22;43305;52.186;5.598;2022-12-19T09:18:10;7.30;99.90
18930;DHT22;43305;52.186;5.598;2022-12-19T09:20:39;7.30;99.90
18930;DHT22;43305;52.186;5.598;2022-12-19T09:23:12;7.40;99.90
18930;DHT22;43305;52.186;5.598;2022-12-19T09:25:38;7.40;99.90
18930;DHT22;43305;52.186;5.598;2022-12-19T09:28:09;7.40;99.90
18930;DHT22;43305;52.186;5.598;2022-12-19T09:30:39;7.40;99.90
18930;DHT22;43305;52.186;5.598;2022-12-19T09:33:06;7.40;99.90
18930;DHT22;43305;52.186;5.598;2022-12-19T09:35:33;7.40;99.90
18930;DHT22;43305;52.186;5.598;2022-12-19T09:38:02;7.40;99.90
18930;DHT22;43305;52.186;5.598;2022-12-19T09:40:39;7.40;99.90
18930;DHT22;43305;52.186;5.598;2022-12-19T09:43:21;7.50;99.90
18930;DHT22;43305;52.186;5.598;2022-12-19T09:46:03;7.50;99.90
18930;DHT22;43305;52.186;5.598;2022-12-19T09:48:40;7.50;99.90
18930;DHT22;43305;52.186;5.598;2022-12-19T09:51:11;7.50;99.90
18930;DHT22;43305;52.186;5.598;2022-12-19T09:53:54;7.60;99.90
18930;DHT22;43305;52.186;5.598;2022-12-19T09:56:29;7.60;99.90
18930;DHT22;43305;52.186;5.598;2022-12-19T09:59:00;7.50;99.90
18930;DHT22;43305;52.186;5.598;2022-12-19T10:01:41;7.60;99.90
18930;DHT22;43305;52.186;5.598;2022-12-19T10:04:13;7.60;99.90
18930;DHT22;43305;52.186;5.598;2022-12-19T10:06:43;7.60;99.90
18930;DHT22;43305;52.186;5.598;2022-12-19T10:09:11;7.60;99.90
18930;DHT22;43305;52.186;5.598;2022-12-19T10:11:50;7.60;99.90
18930;DHT22;43305;52.186;5.598;2022-12-19T10:14:35;7.60;99.90
18930;DHT22;43305;52.186;5.598;2022-12-19T10:17:15;7.60;99.90
18930;DHT22;43305;52.186;5.598;2022-12-19T10:20:01;7.70;99.90
18930;DHT22;43305;52.186;5.598;2022-12-19T10:22:41;7.70;99.90
18930;DHT22;43305;52.186;5.598;2022-12-19T10:25:27;7.70;99.90
18930;DHT22;43305;52.186;5.598;2022-12-19T10:28:05;7.80;99.90
18930;DHT22;43305;52.186;5.598;2022-12-19T10:30:46;7.90;99.90
18930;DHT22;43305;52.186;5.598;2022-12-19T10:33:17;7.90;99.90
18930;DHT22;43305;52.186;5.598;2022-12-19T10:35:56;7.90;99.90
18930;DHT22;43305;52.186;5.598;2022-12-19T10:38:27;8.00;99.90
18930;DHT22;43305;52.186;5.598;2022-12-19T10:41:10;8.00;99.90
18930;DHT22;43305;52.186;5.598;2022-12-19T10:43:53;8.10;99.90
18930;DHT22;43305;52.186;5.598;2022-12-19T10:46:36;8.10;99.90
18930;DHT22;43305;52.186;5.598;2022-12-19T10:49:10;8.10;99.90
18930;DHT22;43305;52.186;5.598;2022-12-19T10:51:39;8.10;99.90
18930;DHT22;43305;52.186;5.598;2022-12-19T10:54:08;8.10;99.90
18930;DHT22;43305;52.186;5.598;2022-12-19T10:56:41;8.20;99.90
18930;DHT22;43305;52.186;5.598;2022-12-19T10:59:21;8.20;99.90
18930;DHT22;43305;52.186;5.598;2022-12-19T11:01:54;8.20;99.90
18930;DHT22;43305;52.186;5.598;2022-12-19T11:04:38;8.20;99.90
18930;DHT22;43305;52.186;5.598;2022-12-19T11:07:18;8.20;99.90
18930;DHT22;43305;52.186;5.598;2022-12-19T11:09:47;8.20;99.90
18930;DHT22;43305;52.186;5.598;2022-12-19T11:12:16;8.20;99.90
18930;DHT22;43305;52.186;5.598;2022-12-19T11:14:54;8.20;99.90
18930;DHT22;43305;52.186;5.598;2022-12-19T11:17:35;8.30;99.90
18930;DHT22;43305;52.186;5.598;2022-12-19T11:20:18;8.30;99.90
18930;DHT22;43305;52.186;5.598;2022-12-19T11:22:51;8.30;99.90
18930;DHT22;43305;52.186;5.598;2022-12-19T11:25:32;8.30;99.90
18930;DHT22;43305;52.186;5.598;2022-12-19T11:28:14;8.30;99.90
18930;DHT22;43305;52.186;5.598;2022-12-19T11:33:33;8.20;99.90
18930;DHT22;43305;52.186;5.598;2022-12-19T11:36:02;8.30;99.90
18930;DHT22;43305;52.186;5.598;2022-12-19T11:38:40;8.30;99.90
18930;DHT22;43305;52.186;5.598;2022-12-19T11:41:15;8.30;99.90
18930;DHT22;43305;52.186;5.598;2022-12-19T11:43:49;8.40;99.90
18930;DHT22;43305;52.186;5.598;2022-12-19T11:46:32;8.40;99.90
18930;DHT22;43305;52.186;5.598;2022-12-19T11:49:10;8.40;99.90
18930;DHT22;43305;52.186;5.598;2022-12-19T11:51:51;8.40;99.90
18930;DHT22;43305;52.186;5.598;2022-12-19T11:54:28;8.50;99.90
18930;DHT22;43305;52.186;5.598;2022-12-19T11:56:58;8.40;99.90
18930;DHT22;43305;52.186;5.598;2022-12-19T11:59:31;8.40;99.90
18930;DHT22;43305;52.186;5.598;2022-12-19T12:02:16;8.40;99.90
18930;DHT22;43305;52.186;5.598;2022-12-19T12:05:10;8.50;99.90
18930;DHT22;43305;52.186;5.598;2022-12-19T12:07:56;8.50;99.90
18930;DHT22;43305;52.186;5.598;2022-12-19T12:10:34;8.50;99.90
18930;DHT22;43305;52.186;5.598;2022-12-19T12:13:09;8.50;99.90
18930;DHT22;43305;52.186;5.598;2022-12-19T12:15:47;8.60;99.90
18930;DHT22;43305;52.186;5.598;2022-12-19T12:18:27;8.60;99.90
18930;DHT22;43305;52.186;5.598;2022-12-19T12:21:04;8.60;99.90
18930;DHT22;43305;52.186;5.598;2022-12-19T12:23:46;8.60;99.90
18930;DHT22;43305;52.186;5.598;2022-12-19T12:26:23;8.70;99.90
18930;DHT22;43305;52.186;5.598;2022-12-19T12:29:03;8.70;99.90
18930;DHT22;43305;52.186;5.598;2022-12-19T12:31:48;8.70;99.90
18930;DHT22;43305;52.186;5.598;2022-12-19T12:34:38;8.70;99.90
18930;DHT22;43305;52.186;5.598;2022-12-19T12:37:23;8.70;99.90
18930;DHT22;43305;52.186;5.598;2022-12-19T12:40:07;8.70;99.90
18930;DHT22;43305;52.186;5.598;2022-12-19T12:42:44;8.80;99.90
18930;DHT22;43305;52.186;5.598;2022-12-19T12:45:18;8.80;99.90
18930;DHT22;43305;52.186;5.598;2022-12-19T12:47:51;8.80;99.90
18930;DHT22;43305;52.186;5.598;2022-12-19T12:50:21;8.90;99.90
18930;DHT22;43305;52.186;5.598;2022-12-19T12:52:55;8.90;99.90
18930;DHT22;43305;52.186;5.598;2022-12-19T12:55:30;8.90;99.90
18930;DHT22;43305;52.186;5.598;2022-12-19T12:58:00;9.00;99.90
18930;DHT22;43305;52.186;5.598;2022-12-19T13:03:18;9.00;99.90
18930;DHT22;43305;52.186;5.598;2022-12-19T13:06:04;9.10;99.90
18930;DHT22;43305;52.186;5.598;2022-12-19T13:08:42;9.10;99.90
18930;DHT22;43305;52.186;5.598;2022-12-19T13:14:42;9.10;99.90
18930;DHT22;43305;52.186;5.598;2022-12-19T13:17:17;9.10;99.90
18930;DHT22;43305;52.186;5.598;2022-12-19T13:19:53;9.20;99.90
18930;DHT22;43305;52.186;5.598;2022-12-19T13:22:36;9.10;99.90
18930;DHT22;43305;52.186;5.598;2022-12-19T13:25:45;9.20;99.90
18930;DHT22;43305;52.186;5.598;2022-12-19T13:28:36;9.20;99.90
18930;DHT22;43305;52.186;5.598;2022-12-19T13:31:22;9.20;99.90
18930;DHT22;43305;52.186;5.598;2022-12-19T13:34:15;9.20;99.90
18930;DHT22;43305;52.186;5.598;2022-12-19T13:36:47;9.20;99.90
18930;DHT22;43305;52.186;5.598;2022-12-19T13:39:26;9.20;99.90
18930;DHT22;43305;52.186;5.598;2022-12-19T13:42:09;9.30;99.90
18930;DHT22;43305;52.186;5.598;2022-12-19T13:44:53;9.30;99.90
18930;DHT22;43305;52.186;5.598;2022-12-19T13:47:21;9.30;99.90
18930;DHT22;43305;52.186;5.598;2022-12-19T13:49:51;9.30;99.90
18930;DHT22;43305;52.186;5.598;2022-12-19T13:52:19;9.30;99.90
18930;DHT22;43305;52.186;5.598;2022-12-19T13:54:55;9.30;99.90
18930;DHT22;43305;52.186;5.598;2022-12-19T13:57:30;9.30;99.90
18930;DHT22;43305;52.186;5.598;2022-12-19T14:00:00;9.40;99.90
18930;DHT22;43305;52.186;5.598;2022-12-19T14:02:31;9.40;99.90
18930;DHT22;43305;52.186;5.598;2022-12-19T14:05:21;9.40;99.90
18930;DHT22;43305;52.186;5.598;2022-12-19T14:07:57;9.40;99.90
18930;DHT22;43305;52.186;5.598;2022-12-19T14:10:28;9.40;99.90
18930;DHT22;43305;52.186;5.598;2022-12-19T14:13:05;9.40;99.90
18930;DHT22;43305;52.186;5.598;2022-12-19T14:15:49;9.40;99.90
18930;DHT22;43305;52.186;5.598;2022-12-19T14:18:25;9.40;99.90
18930;DHT22;43305;52.186;5.598;2022-12-19T14:21:12;9.40;99.90
18930;DHT22;43305;52.186;5.598;2022-12-19T14:23:50;9.40;99.90
18930;DHT22;43305;52.186;5.598;2022-12-19T14:26:26;9.40;99.90
18930;DHT22;43305;52.186;5.598;2022-12-19T14:29:00;9.40;99.90
18930;DHT22;43305;52.186;5.598;2022-12-19T14:31:30;9.40;99.90
18930;DHT22;43305;52.186;5.598;2022-12-19T14:34:01;9.40;99.90
18930;DHT22;43305;52.186;5.598;2022-12-19T14:36:32;9.40;99.90
18930;DHT22;43305;52.186;5.598;2022-12-19T14:39:00;9.40;99.90
18930;DHT22;43305;52.186;5.598;2022-12-19T14:41:45;9.40;99.90
18930;DHT22;43305;52.186;5.598;2022-12-19T14:44:47;9.40;99.90
18930;DHT22;43305;52.186;5.598;2022-12-19T14:47:37;9.50;99.90
18930;DHT22;43305;52.186;5.598;2022-12-19T14:50:29;9.40;99.90
18930;DHT22;43305;52.186;5.598;2022-12-19T14:53:16;9.40;99.90
18930;DHT22;43305;52.186;5.598;2022-12-19T14:55:45;9.40;99.90
18930;DHT22;43305;52.186;5.598;2022-12-19T14:58:16;9.40;99.90
18930;DHT22;43305;52.186;5.598;2022-12-19T15:00:49;9.50;99.90
18930;DHT22;43305;52.186;5.598;2022-12-19T15:03:29;9.40;99.90
18930;DHT22;43305;52.186;5.598;2022-12-19T15:06:06;9.50;99.90
18930;DHT22;43305;52.186;5.598;2022-12-19T15:08:43;9.50;99.90
18930;DHT22;43305;52.186;5.598;2022-12-19T15:11:27;9.50;99.90
18930;DHT22;43305;52.186;5.598;2022-12-19T15:14:11;9.50;99.90
18930;DHT22;43305;52.186;5.598;2022-12-19T15:16:45;9.50;99.90
18930;DHT22;43305;52.186;5.598;2022-12-19T15:19:18;9.50;99.90
18930;DHT22;43305;52.186;5.598;2022-12-19T15:21:46;9.50;99.90
18930;DHT22;43305;52.186;5.598;2022-12-19T15:24:17;9.50;99.90
18930;DHT22;43305;52.186;5.598;2022-12-19T15:26:53;9.40;99.90
18930;DHT22;43305;52.186;5.598;2022-12-19T15:29:21;9.40;99.90
18930;DHT22;43305;52.186;5.598;2022-12-19T15:31:49;9.40;99.90
18930;DHT22;43305;52.186;5.598;2022-12-19T15:34:20;9.40;99.90
18930;DHT22;43305;52.186;5.598;2022-12-19T15:36:47;9.30;99.90
18930;DHT22;43305;52.186;5.598;2022-12-19T15:39:23;9.30;99.90
18930;DHT22;43305;52.186;5.598;2022-12-19T15:41:58;9.30;99.90
18930;DHT22;43305;52.186;5.598;2022-12-19T15:44:33;9.20;99.90
18930;DHT22;43305;52.186;5.598;2022-12-19T15:47:12;9.10;99.90
18930;DHT22;43305;52.186;5.598;2022-12-19T15:49:44;9.00;99.90
18930;DHT22;43305;52.186;5.598;2022-12-19T15:52:15;8.90;99.90
18930;DHT22;43305;52.186;5.598;2022-12-19T15:54:43;8.90;99.90
18930;DHT22;43305;52.186;5.598;2022-12-19T15:57:23;8.90;99.90
18930;DHT22;43305;52.186;5.598;2022-12-19T16:00:03;9.00;99.90
18930;DHT22;43305;52.186;5.598;2022-12-19T16:02:43;9.10;99.90
18930;DHT22;43305;52.186;5.598;2022-12-19T16:05:12;9.10;99.90
18930;DHT22;43305;52.186;5.598;2022-12-19T16:07:42;9.00;99.90
18930;DHT22;43305;52.186;5.598;2022-12-19T16:10:24;9.00;99.90
18930;DHT22;43305;52.186;5.598;2022-12-19T16:12:58;9.00;99.90
18930;DHT22;43305;52.186;5.598;2022-12-19T16:15:32;9.00;99.90
18930;DHT22;43305;52.186;5.598;2022-12-19T16:18:05;9.10;99.90
18930;DHT22;43305;52.186;5.598;2022-12-19T16:20:34;9.00;99.90
18930;DHT22;43305;52.186;5.598;2022-12-19T16:23:07;9.00;99.90
18930;DHT22;43305;52.186;5.598;2022-12-19T16:25:37;9.00;99.90
18930;DHT22;43305;52.186;5.598;2022-12-19T16:28:13;9.10;99.90
18930;DHT22;43305;52.186;5.598;2022-12-19T16:30:44;9.10;99.90
18930;DHT22;43305;52.186;5.598;2022-12-19T16:33:23;9.10;99.90
18930;DHT22;43305;52.186;5.598;2022-12-19T16:35:59;9.10;99.90
18930;DHT22;43305;52.186;5.598;2022-12-19T16:38:26;9.10;99.90
18930;DHT22;43305;52.186;5.598;2022-12-19T16:40:56;9.10;99.90
18930;DHT22;43305;52.186;5.598;2022-12-19T16:43:31;9.10;99.90